createdAt,value
2023-04-09T00:02:21.428Z,97075.41
2023-04-09T00:05:12.418Z,97069.16
2023-04-09T00:08:01.549Z,97079.09
2023-04-09T00:10:50.866Z,97064.19
2023-04-09T00:13:40.068Z,97071.22
2023-04-09T00:16:30.307Z,97074.94
2023-04-09T00:19:44.426Z,97075.41
2023-04-09T00:22:34.376Z,97073.91
2023-04-09T00:25:23.797Z,97067.50
2023-04-09T00:28:12.856Z,97065.00
2023-04-09T00:31:01.475Z,97064.38
2023-04-09T00:33:51.095Z,97054.22
2023-04-09T00:36:40.916Z,97048.00
2023-04-09T00:39:30.889Z,97064.19
2023-04-09T00:42:19.964Z,97056.91
2023-04-09T00:45:10.078Z,97053.84
2023-04-09T00:47:58.753Z,97062.50
2023-04-09T00:50:48.254Z,97051.28
2023-04-09T00:53:36.931Z,97060.19
2023-04-09T00:56:30.202Z,97059.13
2023-04-09T00:59:19.982Z,97056.66
2023-04-09T01:02:09.533Z,97050.63
2023-04-09T01:04:58.573Z,97041.34
2023-04-09T01:08:02.652Z,97054.78
2023-04-09T01:10:58.676Z,97053.72
2023-04-09T01:13:54.587Z,97065.78
2023-04-09T01:16:48.333Z,97058.00
2023-04-09T01:19:45.345Z,97026.94
2023-04-09T01:22:48.553Z,97052.63
2023-04-09T01:25:46.628Z,97051.59
2023-04-09T01:28:43.720Z,97054.34
2023-04-09T01:31:35.883Z,97056.59
2023-04-09T01:34:25.367Z,97057.38
2023-04-09T01:37:16.305Z,97053.91
2023-04-09T01:40:08.438Z,97075.06
2023-04-09T01:42:59.246Z,97070.47
2023-04-09T01:45:50.224Z,97076.94
2023-04-09T01:48:39.712Z,97072.78
2023-04-09T01:51:28.581Z,97055.16
2023-04-09T01:54:18.873Z,97061.19
2023-04-09T01:57:07.455Z,97072.59
2023-04-09T01:59:58.011Z,97070.72
2023-04-09T02:02:57.066Z,97074.66
2023-04-09T02:05:53.133Z,97054.91
2023-04-09T02:08:46.276Z,97051.75
2023-04-09T02:11:38.944Z,97065.25
2023-04-09T02:14:30.689Z,97063.53
2023-04-09T02:17:21.032Z,97066.47
2023-04-09T02:20:12.526Z,97068.28
2023-04-09T02:23:02.072Z,97078.59
2023-04-09T02:25:50.908Z,97039.25
2023-04-09T02:28:40.831Z,97079.31
2023-04-09T02:31:29.754Z,97072.56
2023-04-09T02:34:18.849Z,97078.47
2023-04-09T02:37:09.047Z,97079.44
2023-04-09T02:39:59.381Z,97079.25
2023-04-09T02:42:48.065Z,97079.44
2023-04-09T02:45:36.883Z,97088.97
2023-04-09T02:48:25.716Z,97088.50
2023-04-09T02:51:15.962Z,97084.91
2023-04-09T02:54:05.979Z,97073.75
2023-04-09T02:56:56.244Z,97084.56
2023-04-09T02:59:45.607Z,97090.97
2023-04-09T03:02:35.161Z,97072.69
2023-04-09T03:05:24.019Z,97082.53
2023-04-09T03:08:13.025Z,97087.19
2023-04-09T03:11:02.983Z,97087.75
2023-04-09T03:13:52.365Z,97087.19
2023-04-09T03:16:41.000Z,97084.13
2023-04-09T03:19:32.263Z,97078.84
2023-04-09T03:22:22.221Z,97072.03
2023-04-09T03:25:14.073Z,97049.38
2023-04-09T03:28:04.225Z,97064.66
2023-04-09T03:31:01.540Z,97057.53
2023-04-09T03:33:52.415Z,97059.66
2023-04-09T03:36:42.560Z,97061.69
2023-04-09T03:39:41.194Z,97064.44
2023-04-09T03:42:30.340Z,97073.72
2023-04-09T03:45:20.833Z,97062.81
2023-04-09T03:48:14.034Z,97068.66
2023-04-09T03:51:02.760Z,97065.50
2023-04-09T03:53:59.982Z,97076.91
2023-04-09T03:56:49.155Z,97070.44
2023-04-09T03:59:44.131Z,97066.34
2023-04-09T04:02:34.983Z,97085.22
2023-04-09T04:05:27.508Z,97081.16
2023-04-09T04:08:19.036Z,97073.56
2023-04-09T04:11:09.716Z,97082.53
2023-04-09T04:13:59.198Z,97086.78
2023-04-09T04:16:48.744Z,97086.34
2023-04-09T04:19:42.415Z,97078.59
2023-04-09T04:22:31.945Z,97093.75
2023-04-09T04:25:21.981Z,97034.66
2023-04-09T04:28:10.922Z,97085.03
2023-04-09T04:31:03.890Z,97088.44
2023-04-09T04:33:54.647Z,97087.81
2023-04-09T04:36:44.869Z,97090.88
2023-04-09T04:39:34.971Z,97086.69
2023-04-09T04:42:28.167Z,97088.84
2023-04-09T04:45:18.029Z,97087.91
2023-04-09T04:48:11.501Z,97082.72
2023-04-09T04:51:02.775Z,97084.41
2023-04-09T04:54:00.811Z,97094.47
2023-04-09T04:56:50.862Z,97014.13
2023-04-09T04:59:55.217Z,97091.13
2023-04-09T05:02:44.460Z,97087.47
2023-04-09T05:05:41.638Z,97077.91
2023-04-09T05:08:31.760Z,97098.81
2023-04-09T05:11:22.187Z,97094.09
2023-04-09T05:14:13.534Z,97098.28
2023-04-09T05:17:02.443Z,97090.78
2023-04-09T05:20:02.331Z,97102.78
2023-04-09T05:23:03.707Z,97102.16
2023-04-09T05:25:58.364Z,97109.00
2023-04-09T05:28:57.489Z,97110.28
2023-04-09T05:31:47.125Z,97113.06
2023-04-09T05:34:47.714Z,97105.31
2023-04-09T05:37:38.276Z,97111.31
2023-04-09T05:40:28.128Z,97118.97
2023-04-09T05:43:16.883Z,97117.59
2023-04-09T05:46:07.361Z,97123.88
2023-04-09T05:48:57.088Z,97122.13
2023-04-09T05:51:48.132Z,97117.69
2023-04-09T05:54:42.997Z,97119.16
2023-04-09T05:57:33.307Z,97125.53
2023-04-09T06:00:25.762Z,97120.06
2023-04-09T06:03:15.821Z,97116.00
2023-04-09T06:06:05.084Z,97115.81
2023-04-09T06:08:53.826Z,97110.63
2023-04-09T06:11:42.525Z,97123.22
2023-04-09T06:14:33.517Z,97120.34
2023-04-09T06:17:22.748Z,97102.69
2023-04-09T06:20:13.391Z,97120.03
2023-04-09T06:23:02.195Z,97104.22
2023-04-09T06:25:51.358Z,97110.56
2023-04-09T06:28:40.012Z,97103.91
2023-04-09T06:31:29.111Z,97099.63
2023-04-09T06:34:17.765Z,97113.59
2023-04-09T06:37:08.851Z,97120.69
2023-04-09T06:40:00.836Z,97113.72
2023-04-09T06:42:50.525Z,97110.25
2023-04-09T06:45:48.438Z,97111.78
2023-04-09T06:48:38.476Z,97114.19
2023-04-09T06:51:27.147Z,97099.66
2023-04-09T06:54:17.574Z,97129.50
2023-04-09T06:57:07.560Z,97119.78
2023-04-09T06:59:56.484Z,97140.22
2023-04-09T07:02:45.367Z,97143.41
2023-04-09T07:05:34.170Z,97147.22
2023-04-09T07:08:23.816Z,97138.84
2023-04-09T07:11:13.729Z,97149.28
2023-04-09T07:14:02.357Z,97144.53
2023-04-09T07:16:50.932Z,97159.50
2023-04-09T07:19:40.243Z,97159.97
2023-04-09T07:22:31.924Z,97160.00
2023-04-09T07:25:21.538Z,97160.91
2023-04-09T07:28:11.993Z,97154.09
2023-04-09T07:31:02.898Z,97166.78
2023-04-09T07:33:52.753Z,97158.50
2023-04-09T07:36:42.912Z,97165.38
2023-04-09T07:39:31.943Z,97129.03
2023-04-09T07:42:21.150Z,97168.13
2023-04-09T07:45:11.504Z,97168.34
2023-04-09T07:48:04.741Z,97164.03
2023-04-09T07:50:53.442Z,97170.25
2023-04-09T07:53:43.284Z,97160.69
2023-04-09T07:56:31.880Z,97162.56
2023-04-09T07:59:21.425Z,97167.56
2023-04-09T08:02:14.283Z,97169.47
2023-04-09T08:05:04.700Z,97150.56
2023-04-09T08:07:53.413Z,97175.06
2023-04-09T08:10:42.369Z,97172.81
2023-04-09T08:13:31.020Z,97181.94
2023-04-09T08:16:21.597Z,97180.94
2023-04-09T08:19:12.246Z,97185.50
2023-04-09T08:22:00.829Z,97182.38
2023-04-09T08:24:53.278Z,97177.59
2023-04-09T08:27:42.294Z,97182.56
2023-04-09T08:30:30.859Z,97187.34
2023-04-09T08:33:19.836Z,97189.00
2023-04-09T08:36:11.773Z,97187.34
2023-04-09T08:39:01.004Z,97185.44
2023-04-09T08:41:50.365Z,97189.09
2023-04-09T08:44:41.302Z,97178.03
2023-04-09T08:47:30.105Z,97189.41
2023-04-09T08:50:19.234Z,97206.03
2023-04-09T08:53:11.841Z,97206.06
2023-04-09T08:56:00.479Z,97209.00
2023-04-09T08:58:49.521Z,97215.00
2023-04-09T09:01:38.560Z,97214.56
2023-04-09T09:04:46.178Z,97210.75
2023-04-09T09:07:35.347Z,97204.88
2023-04-09T09:10:38.281Z,97206.16
2023-04-09T09:13:28.934Z,97192.63
2023-04-09T09:16:18.867Z,97196.34
2023-04-09T09:19:07.762Z,97195.28
2023-04-09T09:21:58.056Z,97193.25
2023-04-09T09:24:49.889Z,97180.66
2023-04-09T09:27:40.948Z,97193.69
2023-04-09T09:30:32.438Z,97194.06
2023-04-09T09:33:21.379Z,97191.28
2023-04-09T09:36:11.116Z,97196.28
2023-04-09T09:39:03.814Z,97198.38
2023-04-09T09:42:08.906Z,97192.81
2023-04-09T09:44:59.817Z,97185.16
2023-04-09T09:47:50.909Z,97192.63
2023-04-09T09:50:41.760Z,97199.31
2023-04-09T09:53:33.889Z,97203.66
2023-04-09T09:56:24.689Z,97196.41
2023-04-09T09:59:18.687Z,97202.47
2023-04-09T10:02:19.267Z,97199.78
2023-04-09T10:05:11.105Z,97193.28
2023-04-09T10:08:01.681Z,97190.75
2023-04-09T10:10:53.412Z,97188.47
2023-04-09T10:13:50.144Z,97181.50
2023-04-09T10:16:39.530Z,97186.84
2023-04-09T10:19:30.552Z,97183.00
2023-04-09T10:22:24.183Z,97182.03
2023-04-09T10:25:13.142Z,97178.16
2023-04-09T10:28:02.615Z,97185.25
2023-04-09T10:30:51.489Z,97186.78
2023-04-09T10:33:40.604Z,97193.31
2023-04-09T10:36:31.949Z,97191.38
2023-04-09T10:39:21.126Z,97195.50
2023-04-09T10:42:14.790Z,97188.66
2023-04-09T10:45:09.018Z,97198.03
2023-04-09T10:47:57.977Z,97194.72
2023-04-09T10:50:46.802Z,97188.94
2023-04-09T10:53:37.449Z,97186.38
2023-04-09T10:56:26.135Z,97179.69
2023-04-09T10:59:15.137Z,97190.63
2023-04-09T11:02:07.870Z,97185.19
2023-04-09T11:05:08.201Z,97183.31
2023-04-09T11:08:04.146Z,97187.69
2023-04-09T11:10:58.325Z,97177.84
2023-04-09T11:13:46.952Z,97179.28
2023-04-09T11:16:36.663Z,97179.50
2023-04-09T11:19:27.423Z,97171.94
2023-04-09T11:22:17.338Z,97173.22
2023-04-09T11:25:07.853Z,97180.69
2023-04-09T11:27:57.830Z,97182.78
2023-04-09T11:30:48.223Z,97180.22
2023-04-09T11:33:36.926Z,97174.66
2023-04-09T11:36:27.943Z,97178.31
2023-04-09T11:39:16.526Z,97171.34
2023-04-09T11:42:05.798Z,97182.09
2023-04-09T11:44:56.318Z,97182.44
2023-04-09T11:47:46.736Z,97180.41
2023-04-09T11:50:35.964Z,97173.91
2023-04-09T11:53:32.152Z,97179.53
2023-04-09T11:56:21.012Z,97181.75
2023-04-09T11:59:10.642Z,97184.34
2023-04-09T12:02:01.536Z,97186.53
2023-04-09T12:04:51.406Z,97189.75
2023-04-09T12:07:42.338Z,97177.91
2023-04-09T12:10:36.763Z,97172.97
2023-04-09T12:13:33.722Z,97179.75
2023-04-09T12:16:22.752Z,97180.78
2023-04-09T12:19:13.851Z,97179.31
2023-04-09T12:22:02.474Z,97177.19
2023-04-09T12:24:52.101Z,97174.75
2023-04-09T12:27:40.665Z,97183.19
2023-04-09T12:30:30.926Z,97179.81
2023-04-09T12:33:19.804Z,97184.91
2023-04-09T12:36:11.092Z,97191.06
2023-04-09T12:38:59.692Z,97186.38
2023-04-09T12:41:49.155Z,97187.53
2023-04-09T12:44:39.095Z,97181.78
2023-04-09T12:47:29.215Z,97172.84
2023-04-09T12:50:17.870Z,97177.50
2023-04-09T12:53:08.915Z,97171.44
2023-04-09T12:55:57.632Z,97173.31
2023-04-09T12:58:47.097Z,97168.56
2023-04-09T13:01:35.909Z,97173.16
2023-04-09T13:04:25.550Z,97170.38
2023-04-09T13:07:15.627Z,97171.28
2023-04-09T13:10:06.505Z,97172.41
2023-04-09T13:12:55.430Z,97163.44
2023-04-09T13:15:45.459Z,97164.53
2023-04-09T13:18:34.269Z,97157.59
2023-04-09T13:21:22.916Z,97155.13
2023-04-09T13:24:11.923Z,97149.22
2023-04-09T13:27:02.433Z,97158.22
2023-04-09T13:29:51.059Z,97158.72
2023-04-09T13:32:39.690Z,97157.75
2023-04-09T13:35:28.233Z,97155.38
2023-04-09T13:38:17.789Z,97159.50
2023-04-09T13:41:07.234Z,97153.97
2023-04-09T13:43:57.133Z,97147.59
2023-04-09T13:46:45.978Z,97145.69
2023-04-09T13:49:34.629Z,97142.34
2023-04-09T13:52:24.632Z,97144.69
2023-04-09T13:55:14.073Z,97138.03
2023-04-09T13:58:03.410Z,97140.44
2023-04-09T14:00:53.326Z,97128.03
2023-04-09T14:03:43.593Z,97142.69
2023-04-09T14:06:32.277Z,97138.72
2023-04-09T14:09:21.900Z,97138.06
2023-04-09T14:12:10.788Z,97136.97
2023-04-09T14:14:59.740Z,97133.56
2023-04-09T14:17:49.662Z,97123.63
2023-04-09T14:20:39.395Z,97133.69
2023-04-09T14:23:28.205Z,97130.66
2023-04-09T14:26:17.097Z,97123.50
2023-04-09T14:29:06.215Z,97122.03
2023-04-09T14:31:56.689Z,97123.31
2023-04-09T14:34:47.737Z,97107.47
2023-04-09T14:37:38.068Z,97121.72
2023-04-09T14:40:26.618Z,97118.69
2023-04-09T14:43:16.088Z,97112.22
2023-04-09T14:46:06.749Z,97119.63
2023-04-09T14:48:55.752Z,97120.19
2023-04-09T14:51:45.834Z,97115.09
2023-04-09T14:54:35.645Z,97119.69
2023-04-09T14:57:24.284Z,97106.88
2023-04-09T15:00:14.299Z,97114.72
2023-04-09T15:03:03.958Z,97111.53
2023-04-09T15:05:53.980Z,97105.81
2023-04-09T15:08:43.866Z,97107.66
2023-04-09T15:11:33.546Z,97098.38
2023-04-09T15:14:24.342Z,97098.25
2023-04-09T15:17:13.028Z,97103.22
2023-04-09T15:20:03.693Z,97105.22
2023-04-09T15:22:52.297Z,97104.25
2023-04-09T15:25:42.945Z,97098.44
2023-04-09T15:28:31.939Z,97089.50
2023-04-09T15:31:21.584Z,97091.41
2023-04-09T15:34:10.232Z,97104.06
2023-04-09T15:36:59.674Z,97104.25
2023-04-09T15:39:48.404Z,97100.63
2023-04-09T15:42:38.947Z,97106.84
2023-04-09T15:45:27.989Z,97083.16
2023-04-09T15:48:17.225Z,97099.69
2023-04-09T15:51:06.221Z,97095.72
2023-04-09T15:53:55.786Z,97099.34
2023-04-09T15:56:44.403Z,97081.91
2023-04-09T15:59:35.616Z,97098.44
2023-04-09T16:02:26.086Z,97077.81
2023-04-09T16:05:14.929Z,97089.63
2023-04-09T16:08:03.568Z,97079.91
2023-04-09T16:10:53.146Z,97088.78
2023-04-09T16:13:42.285Z,97088.47
2023-04-09T16:16:32.716Z,97094.69
2023-04-09T16:19:21.573Z,97085.44
2023-04-09T16:22:11.721Z,97091.34
2023-04-09T16:25:00.490Z,97088.81
2023-04-09T16:27:49.153Z,97095.28
2023-04-09T16:30:38.191Z,97086.72
2023-04-09T16:33:29.340Z,97103.06
2023-04-09T16:36:20.358Z,97107.47
2023-04-09T16:39:09.025Z,97081.50
2023-04-09T16:41:59.725Z,97101.81
2023-04-09T16:44:48.732Z,97108.06
2023-04-09T16:47:37.432Z,97102.47
2023-04-09T16:50:27.576Z,97100.41
2023-04-09T16:53:16.775Z,97108.63
2023-04-09T16:56:06.568Z,97102.50
2023-04-09T16:58:55.804Z,97104.94
2023-04-09T17:01:44.469Z,97100.72
2023-04-09T17:04:34.511Z,97101.38
2023-04-09T17:07:24.559Z,97103.03
2023-04-09T17:10:13.299Z,97101.53
2023-04-09T17:13:02.574Z,97099.78
2023-04-09T17:15:53.965Z,97102.38
2023-04-09T17:18:42.988Z,97109.97
2023-04-09T17:21:31.567Z,97110.78
2023-04-09T17:24:22.308Z,97119.44
2023-04-09T17:27:11.577Z,97117.06
2023-04-09T17:30:00.269Z,97115.75
2023-04-09T17:32:51.120Z,97121.66
2023-04-09T17:35:39.806Z,97121.72
2023-04-09T17:38:29.535Z,97119.56
2023-04-09T17:41:19.488Z,97121.00
2023-04-09T17:44:09.048Z,97126.91
2023-04-09T17:46:57.586Z,97127.97
2023-04-09T17:49:47.184Z,97125.50
2023-04-09T17:52:37.324Z,97127.50
2023-04-09T17:55:27.341Z,97118.88
2023-04-09T17:58:17.985Z,97118.41
2023-04-09T18:01:08.555Z,97126.66
2023-04-09T18:03:57.567Z,97126.50
2023-04-09T18:06:46.288Z,97127.03
2023-04-09T18:09:37.861Z,97122.41
2023-04-09T18:12:27.618Z,97139.72
2023-04-09T18:15:18.663Z,97141.94
2023-04-09T18:18:07.998Z,97134.47
2023-04-09T18:20:56.573Z,97123.19
2023-04-09T18:23:46.897Z,97138.56
2023-04-09T18:26:36.601Z,97135.84
2023-04-09T18:29:27.786Z,97134.13
2023-04-09T18:32:19.919Z,97138.50
2023-04-09T18:35:09.190Z,97145.03
2023-04-09T18:37:58.713Z,97138.03
2023-04-09T18:40:47.752Z,97139.69
2023-04-09T18:43:36.424Z,97138.47
2023-04-09T18:46:26.117Z,97141.41
2023-04-09T18:49:16.174Z,97141.56
2023-04-09T18:52:06.782Z,97150.06
2023-04-09T18:54:55.377Z,97144.56
2023-04-09T18:57:44.778Z,97144.28
2023-04-09T19:00:33.304Z,97136.75
2023-04-09T19:03:23.937Z,97156.25
2023-04-09T19:06:17.553Z,97164.19
2023-04-09T19:09:06.897Z,97159.59
2023-04-09T19:11:57.591Z,97163.34
2023-04-09T19:14:46.226Z,97175.47
2023-04-09T19:17:35.795Z,97173.22
2023-04-09T19:20:24.414Z,97161.69
2023-04-09T19:23:15.252Z,97169.34
2023-04-09T19:26:05.482Z,97170.81
2023-04-09T19:28:55.303Z,97177.47
2023-04-09T19:31:44.130Z,97179.56
2023-04-09T19:34:34.211Z,97169.13
2023-04-09T19:37:27.184Z,97177.09
2023-04-09T19:40:18.547Z,97172.53
2023-04-09T19:43:07.118Z,97176.72
2023-04-09T19:45:56.782Z,97179.16
2023-04-09T19:48:45.401Z,97180.53
2023-04-09T19:51:34.685Z,97177.84
2023-04-09T19:54:23.600Z,97187.91
2023-04-09T19:57:13.514Z,97185.41
2023-04-09T20:00:02.856Z,97188.66
2023-04-09T20:03:01.092Z,97188.53
2023-04-09T20:05:50.709Z,97186.03
2023-04-09T20:08:39.367Z,97177.53
2023-04-09T20:11:29.992Z,97190.03
2023-04-09T20:14:20.337Z,97176.31
2023-04-09T20:17:10.642Z,97193.38
2023-04-09T20:19:59.957Z,97194.41
2023-04-09T20:22:55.611Z,97187.13
2023-04-09T20:25:46.518Z,97194.56
2023-04-09T20:28:35.201Z,97198.78
2023-04-09T20:31:28.967Z,97198.78
2023-04-09T20:34:17.582Z,97183.22
2023-04-09T20:37:06.735Z,97198.84
2023-04-09T20:39:55.641Z,97194.09
2023-04-09T20:42:45.874Z,97199.31
2023-04-09T20:45:34.456Z,97188.91
2023-04-09T20:48:24.833Z,97194.94
2023-04-09T20:51:13.454Z,97197.22
2023-04-09T20:54:02.962Z,97199.34
2023-04-09T20:56:51.509Z,97192.09
2023-04-09T20:59:40.882Z,97206.41
2023-04-09T21:02:30.185Z,97194.16
2023-04-09T21:05:23.964Z,97190.81
2023-04-09T21:08:15.356Z,97186.03
2023-04-09T21:11:04.001Z,97187.91
2023-04-09T21:13:55.127Z,97178.19
2023-04-09T21:16:44.273Z,97193.94
2023-04-09T21:19:33.312Z,97194.16
2023-04-09T21:22:23.949Z,97206.03
2023-04-09T21:25:15.127Z,97197.72
2023-04-09T21:28:04.541Z,97191.94
2023-04-09T21:30:53.111Z,97192.16
2023-04-09T21:33:42.608Z,97196.06
2023-04-09T21:36:34.699Z,97202.31
2023-04-09T21:39:24.606Z,97195.25
2023-04-09T21:42:14.813Z,97196.72
2023-04-09T21:45:03.595Z,97193.81
2023-04-09T21:47:53.254Z,97203.16
2023-04-09T21:50:41.800Z,97195.44
2023-04-09T21:53:31.987Z,97209.38
2023-04-09T21:56:21.868Z,97202.47
2023-04-09T21:59:11.280Z,97204.53
2023-04-09T22:01:59.952Z,97199.31
2023-04-09T22:04:50.164Z,97196.81
2023-04-09T22:07:39.857Z,97197.88
2023-04-09T22:10:29.898Z,97198.31
2023-04-09T22:13:19.806Z,97191.00
2023-04-09T22:16:10.153Z,97191.81
2023-04-09T22:18:58.803Z,97194.50
2023-04-09T22:21:50.954Z,97204.25
2023-04-09T22:24:39.527Z,97205.31
2023-04-09T22:27:29.789Z,97204.06
2023-04-09T22:30:21.202Z,97206.75
2023-04-09T22:33:09.759Z,97212.53
2023-04-09T22:36:00.766Z,97209.59
2023-04-09T22:38:49.326Z,97208.75
2023-04-09T22:41:38.822Z,97202.94
2023-04-09T22:44:27.355Z,97191.84
2023-04-09T22:47:18.369Z,97198.69
2023-04-09T22:50:09.086Z,97191.53
2023-04-09T22:52:58.748Z,97192.53
2023-04-09T22:55:51.321Z,97184.03
2023-04-09T22:58:40.280Z,97181.91
2023-04-09T23:01:29.842Z,97182.13
2023-04-09T23:04:24.053Z,97181.50
2023-04-09T23:07:13.406Z,97190.66
2023-04-09T23:10:02.096Z,97179.44
2023-04-09T23:12:52.044Z,97190.56
2023-04-09T23:15:41.009Z,97195.09
2023-04-09T23:18:29.557Z,97188.28
2023-04-09T23:21:19.863Z,97189.69
2023-04-09T23:24:08.412Z,97187.25
2023-04-09T23:26:57.772Z,97187.22
2023-04-09T23:29:46.698Z,97184.69
2023-04-09T23:32:36.188Z,97186.03
2023-04-09T23:35:24.765Z,97178.81
2023-04-09T23:38:16.608Z,97179.91
2023-04-09T23:41:05.965Z,97187.53
2023-04-09T23:43:55.144Z,97191.25
2023-04-09T23:46:43.824Z,97191.75
2023-04-09T23:49:34.288Z,97188.72
2023-04-09T23:52:23.906Z,97193.28
2023-04-09T23:55:15.731Z,97197.44
2023-04-09T23:58:04.488Z,97195.13
